createdAt,value
2018-09-23T00:01:37.246Z,101188.04
2018-09-23T00:04:06.862Z,101171.95
2018-09-23T00:06:36.238Z,101172.48
2018-09-23T00:09:08.014Z,101157.23
2018-09-23T00:11:37.382Z,101160.22
2018-09-23T00:14:07.131Z,101151.11
2018-09-23T00:16:36.501Z,101154.25
2018-09-23T00:19:06.188Z,101152.52
2018-09-23T00:21:36.246Z,101138.20
2018-09-23T00:24:05.661Z,101127.69
2018-09-23T00:26:35.024Z,101121.13
2018-09-23T00:29:04.551Z,101109.47
2018-09-23T00:31:34.344Z,101091.72
2018-09-23T00:34:04.625Z,101097.69
2018-09-23T00:36:33.988Z,101095.64
2018-09-23T00:39:03.362Z,101076.16
2018-09-23T00:41:32.775Z,101075.72
2018-09-23T00:44:02.201Z,101085.27
2018-09-23T00:46:31.709Z,101071.28
2018-09-23T00:49:01.108Z,101062.55
2018-09-23T00:51:30.455Z,101052.57
2018-09-23T00:53:59.857Z,101063.47
2018-09-23T00:56:29.814Z,101068.66
2018-09-23T00:58:59.244Z,101057.78
2018-09-23T01:01:28.637Z,101059.55
2018-09-23T01:03:58.062Z,101053.37
2018-09-23T01:06:27.445Z,101060.31
2018-09-23T01:08:57.084Z,101057.70
2018-09-23T01:11:26.517Z,101048.44
2018-09-23T01:13:56.058Z,101046.37
2018-09-23T01:16:25.433Z,101040.99
2018-09-23T01:18:54.896Z,101042.66
2018-09-23T01:21:24.283Z,101035.78
2018-09-23T01:23:53.664Z,101031.32
2018-09-23T01:26:23.094Z,101019.77
2018-09-23T01:28:52.564Z,101030.51
2018-09-23T01:31:22.613Z,101038.70
2018-09-23T01:33:51.988Z,101034.78
2018-09-23T01:36:21.375Z,101026.53
2018-09-23T01:38:50.996Z,101027.70
2018-09-23T01:41:20.371Z,101025.09
2018-09-23T01:43:49.728Z,101015.41
2018-09-23T01:46:19.188Z,100999.05
2018-09-23T01:48:48.632Z,100998.06
2018-09-23T01:51:18.142Z,100991.18
2018-09-23T01:53:47.816Z,100986.71
2018-09-23T01:56:17.166Z,100984.59
2018-09-23T01:58:46.552Z,100975.84
2018-09-23T02:01:16.148Z,100973.25
2018-09-23T02:03:46.087Z,100971.03
2018-09-23T02:06:15.704Z,100962.25
2018-09-23T02:08:45.020Z,100967.05
2018-09-23T02:11:14.472Z,100961.47
2018-09-23T02:13:43.915Z,100958.34
2018-09-23T02:16:13.421Z,100958.06
2018-09-23T02:18:42.767Z,100949.23
2018-09-23T02:21:12.153Z,100929.59
2018-09-23T02:23:41.494Z,100935.03
2018-09-23T02:26:10.933Z,100942.36
2018-09-23T02:28:40.357Z,100937.59
2018-09-23T02:31:09.740Z,100939.25
2018-09-23T02:33:39.077Z,100937.97
2018-09-23T02:36:08.595Z,100937.09
2018-09-23T02:38:37.983Z,100930.14
2018-09-23T02:41:07.355Z,100919.30
2018-09-23T02:43:36.746Z,100928.41
2018-09-23T02:46:06.140Z,100918.86
2018-09-23T02:48:35.483Z,100911.92
2018-09-23T02:51:04.906Z,100910.73
2018-09-23T02:53:34.375Z,100904.09
2018-09-23T02:56:03.780Z,100891.59
2018-09-23T02:58:33.183Z,100883.20
2018-09-23T03:01:02.529Z,100879.34
2018-09-23T03:03:32.279Z,100877.60
2018-09-23T03:08:43.021Z,100858.72
2018-09-23T03:11:12.400Z,100854.81
2018-09-23T03:13:41.755Z,100853.32
2018-09-23T03:16:11.131Z,100848.61
2018-09-23T03:18:40.682Z,100853.30
2018-09-23T03:21:10.039Z,100857.20
2018-09-23T03:23:39.399Z,100858.14
2018-09-23T03:26:08.803Z,100864.30
2018-09-23T03:28:38.147Z,100863.07
2018-09-23T03:31:08.247Z,100854.31
2018-09-23T03:33:37.573Z,100840.44
2018-09-23T03:36:06.939Z,100835.84
2018-09-23T03:38:36.343Z,100817.41
2018-09-23T03:41:05.683Z,100815.30
2018-09-23T03:43:35.014Z,100817.55
2018-09-23T03:46:04.659Z,100821.88
2018-09-23T03:48:33.991Z,100817.11
2018-09-23T03:51:03.371Z,100809.32
2018-09-23T03:53:32.748Z,100790.51
2018-09-23T03:56:02.117Z,100788.46
2018-09-23T03:58:31.529Z,100782.99
2018-09-23T04:01:00.981Z,100785.30
2018-09-23T04:03:30.368Z,100778.79
2018-09-23T04:05:59.797Z,100780.89
2018-09-23T04:08:29.646Z,100775.80
2018-09-23T04:10:59.340Z,100761.36
2018-09-23T04:13:29.187Z,100754.34
2018-09-23T04:15:58.615Z,100741.83
2018-09-23T04:18:27.974Z,100736.09
2018-09-23T04:20:57.328Z,100736.47
2018-09-23T04:23:26.991Z,100727.00
2018-09-23T04:25:56.374Z,100725.61
2018-09-23T04:28:25.751Z,100725.66
2018-09-23T04:30:55.117Z,100723.92
2018-09-23T04:33:24.461Z,100717.50
2018-09-23T04:35:54.244Z,100724.80
2018-09-23T04:38:23.726Z,100710.48
2018-09-23T04:40:53.072Z,100701.78
2018-09-23T04:43:22.414Z,100711.19
2018-09-23T04:45:51.782Z,100703.38
2018-09-23T04:48:21.373Z,100719.09
2018-09-23T04:50:50.799Z,100718.45
2018-09-23T04:53:20.199Z,100729.72
2018-09-23T04:55:49.624Z,100732.27
2018-09-23T04:58:19.152Z,100733.27
2018-09-23T05:00:48.530Z,100736.68
2018-09-23T05:03:17.917Z,100733.57
2018-09-23T05:05:47.254Z,100737.45
2018-09-23T05:08:16.597Z,100732.63
2018-09-23T05:10:45.973Z,100723.62
2018-09-23T05:13:15.328Z,100719.80
2018-09-23T05:15:44.947Z,100716.11
2018-09-23T05:18:14.292Z,100706.42
2018-09-23T05:20:43.684Z,100716.05
2018-09-23T05:23:13.035Z,100709.23
2018-09-23T05:25:42.428Z,100702.87
2018-09-23T05:28:11.779Z,100701.18
2018-09-23T05:30:41.114Z,100701.56
2018-09-23T05:33:10.467Z,100700.17
2018-09-23T05:35:39.891Z,100694.61
2018-09-23T05:38:09.284Z,100687.23
2018-09-23T05:40:38.682Z,100692.42
2018-09-23T05:43:08.071Z,100686.73
2018-09-23T05:45:37.415Z,100685.05
2018-09-23T05:48:06.843Z,100684.47
2018-09-23T05:50:36.387Z,100677.93
2018-09-23T05:53:05.811Z,100671.57
2018-09-23T05:55:35.514Z,100662.39
2018-09-23T05:58:04.838Z,100664.75
2018-09-23T06:00:38.750Z,100668.23
2018-09-23T06:03:08.610Z,100671.20
2018-09-23T06:05:37.919Z,100680.41
2018-09-23T06:08:07.347Z,100683.08
2018-09-23T06:10:36.840Z,100680.86
2018-09-23T06:13:06.175Z,100685.18
2018-09-23T06:15:35.866Z,100682.64
2018-09-23T06:18:05.583Z,100679.02
2018-09-23T06:20:34.931Z,100671.99
2018-09-23T06:23:04.583Z,100673.87
2018-09-23T06:25:33.978Z,100664.11
2018-09-23T06:28:03.383Z,100653.95
2018-09-23T06:30:32.931Z,100652.89
2018-09-23T06:33:02.367Z,100648.47
2018-09-23T06:35:31.800Z,100651.46
2018-09-23T06:38:01.152Z,100652.60
2018-09-23T06:40:30.529Z,100645.23
2018-09-23T06:43:00.523Z,100642.97
2018-09-23T06:45:29.857Z,100637.81
2018-09-23T06:47:59.228Z,100637.20
2018-09-23T06:50:28.835Z,100645.38
2018-09-23T06:52:58.593Z,100655.33
2018-09-23T06:55:28.086Z,100643.56
2018-09-23T06:57:57.576Z,100641.69
2018-09-23T07:00:26.943Z,100638.22
2018-09-23T07:02:56.328Z,100635.52
2018-09-23T07:05:25.763Z,100634.11
2018-09-23T07:07:55.579Z,100637.00
2018-09-23T07:10:25.159Z,100630.37
2018-09-23T07:12:54.905Z,100629.07
2018-09-23T07:15:24.719Z,100628.11
2018-09-23T07:17:54.091Z,100631.89
2018-09-23T07:20:23.435Z,100628.84
2018-09-23T07:22:52.989Z,100625.78
2018-09-23T07:25:22.538Z,100622.14
2018-09-23T07:27:51.907Z,100629.45
2018-09-23T07:30:21.234Z,100627.63
2018-09-23T07:32:50.635Z,100623.20
2018-09-23T07:35:20.051Z,100621.41
2018-09-23T07:37:49.409Z,100619.01
2018-09-23T07:40:18.860Z,100608.84
2018-09-23T07:42:48.756Z,100603.45
2018-09-23T07:45:18.132Z,100600.22
2018-09-23T07:47:47.788Z,100589.09
2018-09-23T07:50:17.187Z,100579.58
2018-09-23T07:52:46.595Z,100578.32
2018-09-23T07:55:15.953Z,100579.92
2018-09-23T07:57:46.132Z,100589.51
2018-09-23T08:00:15.529Z,100595.25
2018-09-23T08:02:44.860Z,100591.53
2018-09-23T08:05:14.223Z,100592.27
2018-09-23T08:07:43.770Z,100594.55
2018-09-23T08:10:13.452Z,100602.53
2018-09-23T08:12:42.976Z,100611.22
2018-09-23T08:15:12.270Z,100602.87
2018-09-23T08:17:41.691Z,100601.75
2018-09-23T08:20:11.279Z,100600.27
2018-09-23T08:22:40.535Z,100583.73
2018-09-23T08:25:10.753Z,100571.16
2018-09-23T08:27:40.042Z,100567.69
2018-09-23T08:30:09.427Z,100572.54
2018-09-23T08:32:38.807Z,100573.20
2018-09-23T08:35:08.198Z,100564.58
2018-09-23T08:37:37.588Z,100561.00
2018-09-23T08:40:07.021Z,100562.71
2018-09-23T08:42:36.421Z,100553.04
2018-09-23T08:45:05.924Z,100539.05
2018-09-23T08:47:35.329Z,100553.56
2018-09-23T08:50:05.474Z,100560.73
2018-09-23T08:52:34.896Z,100562.84
2018-09-23T08:55:04.283Z,100561.47
2018-09-23T08:57:33.666Z,100541.85
2018-09-23T09:00:03.336Z,100532.70
2018-09-23T09:02:32.857Z,100523.64
2018-09-23T09:05:02.279Z,100524.89
2018-09-23T09:07:31.670Z,100523.05
2018-09-23T09:10:02.263Z,100511.56
2018-09-23T09:12:31.686Z,100506.88
2018-09-23T09:15:01.100Z,100499.81
2018-09-23T09:17:30.656Z,100506.27
2018-09-23T09:20:00.441Z,100505.04
2018-09-23T09:22:30.124Z,100512.59
2018-09-23T09:24:59.488Z,100504.32
2018-09-23T09:27:28.991Z,100509.27
2018-09-23T09:29:58.443Z,100492.36
2018-09-23T09:32:27.803Z,100484.11
2018-09-23T09:34:57.242Z,100485.62
2018-09-23T09:37:27.499Z,100469.70
2018-09-23T09:39:56.843Z,100464.81
2018-09-23T09:42:26.288Z,100458.81
2018-09-23T09:44:55.709Z,100445.39
2018-09-23T09:47:25.114Z,100447.16
2018-09-23T09:49:54.500Z,100445.35
2018-09-23T09:52:23.891Z,100434.63
2018-09-23T09:54:53.251Z,100430.45
2018-09-23T09:57:22.806Z,100422.50
2018-09-23T09:59:52.319Z,100414.41
2018-09-23T10:02:21.763Z,100404.86
2018-09-23T10:04:51.264Z,100398.26
2018-09-23T10:07:20.752Z,100378.67
2018-09-23T10:09:50.155Z,100368.38
2018-09-23T10:12:19.980Z,100354.30
2018-09-23T10:14:49.379Z,100358.54
2018-09-23T10:17:19.494Z,100378.59
2018-09-23T10:19:48.896Z,100372.98
2018-09-23T10:22:18.352Z,100377.03
2018-09-23T10:24:47.952Z,100367.64
2018-09-23T10:27:17.399Z,100356.67
2018-09-23T10:29:47.185Z,100375.53
2018-09-23T10:32:16.579Z,100379.16
2018-09-23T10:34:46.186Z,100383.48
2018-09-23T10:37:15.659Z,100390.13
2018-09-23T10:39:45.191Z,100395.09
2018-09-23T10:42:14.629Z,100404.56
2018-09-23T10:44:44.107Z,100400.39
2018-09-23T10:47:13.607Z,100402.91
2018-09-23T10:49:43.418Z,100412.20
2018-09-23T10:52:12.935Z,100432.12
2018-09-23T10:54:48.879Z,100427.33
2018-09-23T10:57:18.381Z,100390.62
2018-09-23T10:59:47.907Z,100378.41
2018-09-23T11:02:17.337Z,100356.82
2018-09-23T11:04:46.724Z,100361.52
2018-09-23T11:07:16.104Z,100339.09
2018-09-23T11:09:45.630Z,100337.45
2018-09-23T11:12:15.015Z,100351.22
2018-09-23T11:14:45.025Z,100351.77
2018-09-23T11:17:14.724Z,100335.86
2018-09-23T11:19:44.156Z,100311.10
2018-09-23T11:22:13.648Z,100291.65
2018-09-23T11:24:43.282Z,100295.48
2018-09-23T11:27:12.658Z,100290.70
2018-09-23T11:29:42.154Z,100264.89
2018-09-23T11:32:11.770Z,100243.55
2018-09-23T11:34:41.615Z,100246.94
2018-09-23T11:37:11.060Z,100213.95
2018-09-23T11:39:40.467Z,100189.77
2018-09-23T11:42:09.866Z,100186.48
2018-09-23T11:44:39.481Z,100184.36
2018-09-23T11:47:09.223Z,100181.52
2018-09-23T11:49:38.698Z,100187.48
2018-09-23T11:52:08.055Z,100230.81
2018-09-23T11:54:38.000Z,100275.87
2018-09-23T11:57:07.568Z,100346.50
2018-09-23T11:59:36.987Z,100366.22
2018-09-23T12:02:06.912Z,100341.95
2018-09-23T12:04:36.947Z,100326.68
2018-09-23T12:07:06.378Z,100293.38
2018-09-23T12:09:35.932Z,100287.24
2018-09-23T12:12:06.316Z,100304.31
2018-09-23T12:14:36.130Z,100314.94
2018-09-23T12:17:05.559Z,100342.20
2018-09-23T12:19:34.991Z,100332.41
2018-09-23T12:22:04.519Z,100320.75
2018-09-23T12:27:16.584Z,100349.80
2018-09-23T12:29:46.207Z,100334.49
2018-09-23T12:32:16.243Z,100357.73
2018-09-23T12:34:46.275Z,100363.03
2018-09-23T12:37:15.742Z,100380.05
2018-09-23T12:39:46.455Z,100390.41
2018-09-23T12:42:16.357Z,100369.92
2018-09-23T12:44:45.736Z,100337.41
2018-09-23T12:47:15.377Z,100330.29
2018-09-23T12:49:44.828Z,100330.41
2018-09-23T12:52:14.321Z,100378.36
2018-09-23T12:54:44.042Z,100407.31
2018-09-23T12:57:13.500Z,100396.38
2018-09-23T12:59:43.045Z,100381.62
2018-09-23T13:02:13.468Z,100383.78
2018-09-23T13:04:43.022Z,100361.64
2018-09-23T13:07:12.580Z,100336.83
2018-09-23T13:09:42.261Z,100339.39
2018-09-23T13:12:11.711Z,100364.59
2018-09-23T13:14:41.174Z,100375.86
2018-09-23T13:17:10.629Z,100360.06
2018-09-23T13:19:40.005Z,100381.25
2018-09-23T13:22:09.393Z,100383.78
2018-09-23T13:24:38.771Z,100355.75
2018-09-23T13:27:08.922Z,100358.36
2018-09-23T13:29:38.869Z,100359.28
2018-09-23T13:32:08.447Z,100347.42
2018-09-23T13:34:37.975Z,100351.95
2018-09-23T13:37:08.369Z,100356.95
2018-09-23T13:39:37.787Z,100365.89
2018-09-23T13:42:07.915Z,100358.02
2018-09-23T13:44:37.397Z,100372.68
2018-09-23T13:47:06.980Z,100409.83
2018-09-23T13:49:36.408Z,100420.35
2018-09-23T13:52:05.877Z,100438.55
2018-09-23T13:54:35.569Z,100473.64
2018-09-23T13:57:05.029Z,100493.08
2018-09-23T13:59:34.407Z,100492.16
2018-09-23T14:02:04.458Z,100522.75
2018-09-23T14:04:34.153Z,100522.81
2018-09-23T14:07:03.734Z,100524.18
2018-09-23T14:09:33.484Z,100512.39
2018-09-23T14:12:02.994Z,100498.16
2018-09-23T14:14:32.431Z,100503.78
2018-09-23T14:17:01.927Z,100521.92
2018-09-23T14:19:31.393Z,100515.78
2018-09-23T14:22:00.894Z,100500.60
2018-09-23T14:24:30.493Z,100512.48
2018-09-23T14:26:59.942Z,100527.84
2018-09-23T14:29:30.064Z,100536.77
2018-09-23T14:32:00.482Z,100551.06
2018-09-23T14:34:30.120Z,100555.41
2018-09-23T14:37:01.206Z,100548.27
2018-09-23T14:39:31.652Z,100547.50
2018-09-23T14:42:01.218Z,100557.25
2018-09-23T14:44:30.550Z,100568.34
2018-09-23T14:46:59.967Z,100590.41
2018-09-23T14:49:29.371Z,100608.41
2018-09-23T14:51:58.916Z,100609.74
2018-09-23T14:54:28.405Z,100607.73
2018-09-23T14:56:57.848Z,100604.42
2018-09-23T14:59:27.951Z,100624.75
2018-09-23T15:01:57.641Z,100625.76
2018-09-23T15:04:27.962Z,100625.05
2018-09-23T15:06:57.635Z,100635.02
2018-09-23T15:09:27.369Z,100642.32
2018-09-23T15:11:56.874Z,100635.61
2018-09-23T15:14:26.315Z,100624.84
2018-09-23T15:16:55.886Z,100639.72
2018-09-23T15:19:25.332Z,100639.15
2018-09-23T15:21:55.264Z,100650.00
2018-09-23T15:24:24.927Z,100640.89
2018-09-23T15:26:54.424Z,100658.02
2018-09-23T15:29:24.063Z,100679.56
2018-09-23T15:31:54.461Z,100676.40
2018-09-23T15:34:24.636Z,100678.17
2018-09-23T15:36:54.267Z,100676.90
2018-09-23T15:39:23.899Z,100684.49
2018-09-23T15:41:53.972Z,100692.30
2018-09-23T15:44:23.518Z,100693.74
2018-09-23T15:46:53.444Z,100719.41
2018-09-23T15:49:23.004Z,100730.29
2018-09-23T15:54:34.540Z,100738.67
2018-09-23T15:57:04.247Z,100738.70
2018-09-23T15:59:33.928Z,100754.92
2018-09-23T16:02:03.411Z,100770.48
2018-09-23T16:04:33.026Z,100773.50
2018-09-23T16:07:02.416Z,100785.72
2018-09-23T16:09:32.122Z,100811.50
2018-09-23T16:12:01.669Z,100821.72
2018-09-23T16:14:31.196Z,100825.74
2018-09-23T16:17:00.651Z,100830.65
2018-09-23T16:19:30.162Z,100847.72
2018-09-23T16:21:59.775Z,100857.82
2018-09-23T16:24:29.454Z,100868.59
2018-09-23T16:26:58.823Z,100882.09
2018-09-23T16:29:28.772Z,100897.11
2018-09-23T16:31:58.207Z,100906.74
2018-09-23T16:34:27.595Z,100908.92
2018-09-23T16:36:57.551Z,100920.24
2018-09-23T16:39:27.388Z,100925.70
2018-09-23T16:41:57.075Z,100941.31
2018-09-23T16:44:26.443Z,100962.42
2018-09-23T16:46:55.846Z,100970.81
2018-09-23T16:49:25.327Z,100980.88
2018-09-23T16:51:54.754Z,100989.16
2018-09-23T16:54:24.572Z,101006.92
2018-09-23T16:56:53.970Z,101012.45
2018-09-23T16:59:23.374Z,101025.21
2018-09-23T17:01:52.803Z,101035.03
2018-09-23T17:04:22.179Z,101040.28
2018-09-23T17:06:51.560Z,101042.97
2018-09-23T17:09:21.019Z,101051.10
2018-09-23T17:11:50.403Z,101069.44
2018-09-23T17:14:19.818Z,101087.24
2018-09-23T17:16:49.306Z,101099.85
2018-09-23T17:19:18.796Z,101103.44
2018-09-23T17:21:51.058Z,101114.70
2018-09-23T17:24:20.544Z,101127.31
2018-09-23T17:26:50.516Z,101126.00
2018-09-23T17:29:20.218Z,101135.58
2018-09-23T17:31:49.620Z,101144.23
2018-09-23T17:34:19.111Z,101156.36
2018-09-23T17:36:49.064Z,101156.83
2018-09-23T17:39:18.607Z,101169.34
2018-09-23T17:41:48.060Z,101174.08
2018-09-23T17:44:17.427Z,101178.88
2018-09-23T17:46:47.307Z,101182.73
2018-09-23T17:49:16.769Z,101194.03
2018-09-23T17:51:46.195Z,101202.73
2018-09-23T17:54:15.664Z,101214.39
2018-09-23T17:56:45.479Z,101225.60
2018-09-23T17:59:14.956Z,101231.75
2018-09-23T18:01:44.432Z,101248.95
2018-09-23T18:04:13.902Z,101256.39
2018-09-23T18:06:44.220Z,101256.74
2018-09-23T18:09:13.619Z,101271.90
2018-09-23T18:11:43.097Z,101285.36
2018-09-23T18:14:12.464Z,101292.72
2018-09-23T18:16:41.870Z,101301.75
2018-09-23T18:19:11.239Z,101309.97
2018-09-23T18:21:41.634Z,101319.11
2018-09-23T18:24:11.033Z,101318.59
2018-09-23T18:26:40.485Z,101331.98
2018-09-23T18:29:09.907Z,101340.69
2018-09-23T18:31:39.384Z,101345.41
2018-09-23T18:34:08.815Z,101350.68
2018-09-23T18:36:38.468Z,101359.37
2018-09-23T18:39:09.531Z,101370.20
2018-09-23T18:41:39.180Z,101382.30
2018-09-23T18:44:08.586Z,101390.06
2018-09-23T18:46:38.041Z,101404.35
2018-09-23T18:49:07.719Z,101403.12
2018-09-23T18:51:37.231Z,101409.68
2018-09-23T18:54:11.882Z,101416.23
2018-09-23T18:56:41.529Z,101429.66
2018-09-23T18:59:10.959Z,101435.32
2018-09-23T19:01:40.365Z,101435.81
2018-09-23T19:04:09.738Z,101446.67
2018-09-23T19:06:39.367Z,101448.38
2018-09-23T19:09:09.304Z,101459.22
2018-09-23T19:11:38.887Z,101468.34
2018-09-23T19:14:08.345Z,101464.94
2018-09-23T19:16:37.877Z,101471.84
2018-09-23T19:19:07.399Z,101474.03
2018-09-23T19:21:36.880Z,101478.84
2018-09-23T19:24:06.298Z,101491.02
2018-09-23T19:26:35.720Z,101498.81
2018-09-23T19:29:05.108Z,101512.20
2018-09-23T19:31:34.858Z,101524.80
2018-09-23T19:34:04.266Z,101535.60
2018-09-23T19:36:33.683Z,101540.82
2018-09-23T19:39:03.588Z,101557.24
2018-09-23T19:41:33.082Z,101566.25
2018-09-23T19:44:03.134Z,101571.93
2018-09-23T19:46:33.384Z,101574.14
2018-09-23T19:49:02.815Z,101580.62
2018-09-23T19:51:32.501Z,101584.08
2018-09-23T19:54:02.704Z,101589.70
2018-09-23T19:59:16.713Z,101609.55
2018-09-23T20:01:46.200Z,101614.74
2018-09-23T20:04:15.717Z,101629.44
2018-09-23T20:06:45.376Z,101630.69
2018-09-23T20:09:14.920Z,101636.72
2018-09-23T20:11:45.332Z,101644.11
2018-09-23T20:14:15.300Z,101653.62
2018-09-23T20:16:44.882Z,101648.88
2018-09-23T20:19:14.402Z,101658.40
2018-09-23T20:21:44.651Z,101657.12
2018-09-23T20:24:14.312Z,101667.06
2018-09-23T20:26:45.260Z,101667.56
2018-09-23T20:29:14.690Z,101670.17
2018-09-23T20:31:44.142Z,101664.98
2018-09-23T20:34:13.752Z,101679.68
2018-09-23T20:36:43.193Z,101683.56
2018-09-23T20:39:12.789Z,101686.16
2018-09-23T20:41:42.495Z,101692.22
2018-09-23T20:44:11.930Z,101705.64
2018-09-23T20:46:41.680Z,101699.17
2018-09-23T20:49:11.816Z,101700.00
2018-09-23T20:51:42.121Z,101699.16
2018-09-23T20:54:11.849Z,101710.37
2018-09-23T20:56:41.750Z,101717.73
2018-09-23T20:59:11.273Z,101732.90
2018-09-23T21:01:40.863Z,101731.63
2018-09-23T21:04:10.309Z,101736.80
2018-09-23T21:06:40.923Z,101739.42
2018-09-23T21:09:11.516Z,101754.54
2018-09-23T21:11:41.019Z,101759.75
2018-09-23T21:14:10.516Z,101766.70
2018-09-23T21:16:40.104Z,101772.33
2018-09-23T21:19:09.504Z,101778.84
2018-09-23T21:21:38.937Z,101783.19
2018-09-23T21:24:08.482Z,101785.78
2018-09-23T21:26:37.943Z,101797.92
2018-09-23T21:29:07.440Z,101802.25
2018-09-23T21:31:36.887Z,101811.81
2018-09-23T21:34:06.411Z,101815.68
2018-09-23T21:36:35.821Z,101815.26
2018-09-23T21:39:07.311Z,101818.73
2018-09-23T21:41:36.882Z,101824.80
2018-09-23T21:44:07.020Z,101822.66
2018-09-23T21:46:36.448Z,101828.34
2018-09-23T21:49:06.024Z,101844.77
2018-09-23T21:51:35.643Z,101853.00
2018-09-23T21:54:05.188Z,101854.30
2018-09-23T21:56:34.950Z,101856.46
2018-09-23T21:59:04.697Z,101864.28
2018-09-23T22:01:34.189Z,101870.80
2018-09-23T22:04:03.864Z,101875.98
2018-09-23T22:06:33.339Z,101883.34
2018-09-23T22:09:03.074Z,101889.39
2018-09-23T22:11:32.609Z,101892.00
2018-09-23T22:14:02.060Z,101889.41
2018-09-23T22:16:31.568Z,101898.49
2018-09-23T22:19:01.006Z,101905.00
2018-09-23T22:21:30.568Z,101909.31
2018-09-23T22:23:59.915Z,101911.47
2018-09-23T22:26:29.337Z,101914.50
2018-09-23T22:28:58.740Z,101919.27
2018-09-23T22:31:28.359Z,101923.62
2018-09-23T22:33:57.793Z,101931.40
2018-09-23T22:36:27.153Z,101941.80
2018-09-23T22:38:56.500Z,101936.62
2018-09-23T22:41:25.842Z,101944.83
2018-09-23T22:43:55.571Z,101948.30
2018-09-23T22:46:24.944Z,101962.13
2018-09-23T22:48:54.401Z,101965.59
2018-09-23T22:51:23.742Z,101966.89
2018-09-23T22:53:53.186Z,101977.26
2018-09-23T22:56:22.589Z,101988.52
2018-09-23T22:58:51.926Z,101987.66
2018-09-23T23:01:21.283Z,101990.23
2018-09-23T23:03:50.646Z,101994.55
2018-09-23T23:06:19.987Z,102004.52
2018-09-23T23:08:49.368Z,102007.09
2018-09-23T23:11:18.724Z,102016.60
2018-09-23T23:13:48.213Z,102028.30
2018-09-23T23:16:17.615Z,102025.69
2018-09-23T23:18:46.959Z,102032.16
2018-09-23T23:21:16.416Z,102036.93
2018-09-23T23:23:45.807Z,102039.92
2018-09-23T23:26:15.319Z,102040.36
2018-09-23T23:28:44.912Z,102049.45
2018-09-23T23:31:14.693Z,102058.50
2018-09-23T23:33:44.056Z,102062.39
2018-09-23T23:36:13.453Z,102067.16
2018-09-23T23:38:42.824Z,102072.78
2018-09-23T23:41:12.270Z,102076.22
2018-09-23T23:43:41.672Z,102082.70
2018-09-23T23:46:11.530Z,102081.39
2018-09-23T23:48:40.876Z,102088.34
2018-09-23T23:51:10.293Z,102102.14
2018-09-23T23:53:39.665Z,102109.50
2018-09-23T23:56:09.267Z,102110.77
2018-09-23T23:58:38.571Z,102120.30
